sensor_id;sensor_type;location;lat;lon;timestamp;temperature;humidity
29237;DHT22;16266;50.866;4.398;2023-12-20T00:00:28;6.30;99.90
29237;DHT22;16266;50.866;4.398;2023-12-20T00:02:54;6.30;99.90
29237;DHT22;16266;50.866;4.398;2023-12-20T00:05:20;6.30;99.90
29237;DHT22;16266;50.866;4.398;2023-12-20T00:07:45;6.20;99.90
29237;DHT22;16266;50.866;4.398;2023-12-20T00:10:11;6.20;99.90
29237;DHT22;16266;50.866;4.398;2023-12-20T00:12:38;6.20;99.90
29237;DHT22;16266;50.866;4.398;2023-12-20T00:15:04;6.40;99.90
29237;DHT22;16266;50.866;4.398;2023-12-20T00:17:30;6.50;99.90
29237;DHT22;16266;50.866;4.398;2023-12-20T00:19:55;6.50;99.90
29237;DHT22;16266;50.866;4.398;2023-12-20T00:22:21;6.40;99.90
29237;DHT22;16266;50.866;4.398;2023-12-20T00:24:47;6.40;99.90
29237;DHT22;16266;50.866;4.398;2023-12-20T00:27:12;6.30;99.90
29237;DHT22;16266;50.866;4.398;2023-12-20T00:29:38;6.30;99.90
29237;DHT22;16266;50.866;4.398;2023-12-20T00:32:04;6.20;99.90
29237;DHT22;16266;50.866;4.398;2023-12-20T00:34:29;6.20;99.90
29237;DHT22;16266;50.866;4.398;2023-12-20T00:36:55;6.10;99.90
29237;DHT22;16266;50.866;4.398;2023-12-20T00:39:22;6.10;99.90
29237;DHT22;16266;50.866;4.398;2023-12-20T00:41:47;6.10;99.90
29237;DHT22;16266;50.866;4.398;2023-12-20T00:44:13;6.10;99.90
29237;DHT22;16266;50.866;4.398;2023-12-20T00:46:39;6.10;99.90
29237;DHT22;16266;50.866;4.398;2023-12-20T00:49:05;6.00;99.90
29237;DHT22;16266;50.866;4.398;2023-12-20T00:51:31;6.10;99.90
29237;DHT22;16266;50.866;4.398;2023-12-20T00:53:57;6.10;99.90
29237;DHT22;16266;50.866;4.398;2023-12-20T00:56:23;6.00;99.90
29237;DHT22;16266;50.866;4.398;2023-12-20T00:58:49;5.90;99.90
29237;DHT22;16266;50.866;4.398;2023-12-20T01:01:15;6.00;99.90
29237;DHT22;16266;50.866;4.398;2023-12-20T01:03:41;5.90;99.90
29237;DHT22;16266;50.866;4.398;2023-12-20T01:06:07;5.90;99.90
29237;DHT22;16266;50.866;4.398;2023-12-20T01:08:32;5.90;99.90
29237;DHT22;16266;50.866;4.398;2023-12-20T01:11:00;5.90;99.90
29237;DHT22;16266;50.866;4.398;2023-12-20T01:13:26;5.90;99.90
29237;DHT22;16266;50.866;4.398;2023-12-20T01:15:51;6.00;99.90
29237;DHT22;16266;50.866;4.398;2023-12-20T01:18:17;5.90;99.90
29237;DHT22;16266;50.866;4.398;2023-12-20T01:20:43;5.90;99.90
29237;DHT22;16266;50.866;4.398;2023-12-20T01:23:08;5.80;99.90
29237;DHT22;16266;50.866;4.398;2023-12-20T01:25:34;5.80;99.90
29237;DHT22;16266;50.866;4.398;2023-12-20T01:28:00;5.90;99.90
29237;DHT22;16266;50.866;4.398;2023-12-20T01:30:25;5.80;99.90
29237;DHT22;16266;50.866;4.398;2023-12-20T01:32:51;5.80;99.90
29237;DHT22;16266;50.866;4.398;2023-12-20T01:35:16;5.80;99.90
29237;DHT22;16266;50.866;4.398;2023-12-20T01:37:42;5.90;99.90
29237;DHT22;16266;50.866;4.398;2023-12-20T01:40:08;5.90;99.90
29237;DHT22;16266;50.866;4.398;2023-12-20T01:42:34;5.80;99.90
29237;DHT22;16266;50.866;4.398;2023-12-20T01:45:00;5.80;99.90
29237;DHT22;16266;50.866;4.398;2023-12-20T01:47:25;5.90;99.90
29237;DHT22;16266;50.866;4.398;2023-12-20T01:49:52;5.90;99.90
29237;DHT22;16266;50.866;4.398;2023-12-20T01:52:19;5.80;99.90
29237;DHT22;16266;50.866;4.398;2023-12-20T01:54:46;5.90;99.90
29237;DHT22;16266;50.866;4.398;2023-12-20T01:57:13;5.90;99.90
29237;DHT22;16266;50.866;4.398;2023-12-20T01:59:39;5.90;99.90
29237;DHT22;16266;50.866;4.398;2023-12-20T02:02:05;6.10;99.90
29237;DHT22;16266;50.866;4.398;2023-12-20T02:04:32;6.20;99.90
29237;DHT22;16266;50.866;4.398;2023-12-20T02:06:58;6.30;99.90
29237;DHT22;16266;50.866;4.398;2023-12-20T02:09:24;6.20;99.90
29237;DHT22;16266;50.866;4.398;2023-12-20T02:11:50;6.10;99.90
29237;DHT22;16266;50.866;4.398;2023-12-20T02:14:16;6.00;99.90
29237;DHT22;16266;50.866;4.398;2023-12-20T02:16:41;6.00;99.90
29237;DHT22;16266;50.866;4.398;2023-12-20T02:19:13;6.00;99.90
29237;DHT22;16266;50.866;4.398;2023-12-20T02:21:39;6.00;99.90
29237;DHT22;16266;50.866;4.398;2023-12-20T02:24:05;5.90;99.90
29237;DHT22;16266;50.866;4.398;2023-12-20T02:26:32;5.90;99.90
29237;DHT22;16266;50.866;4.398;2023-12-20T02:28:59;5.90;99.90
29237;DHT22;16266;50.866;4.398;2023-12-20T02:31:25;5.90;99.90
29237;DHT22;16266;50.866;4.398;2023-12-20T02:33:51;5.90;99.90
29237;DHT22;16266;50.866;4.398;2023-12-20T02:36:16;5.80;99.90
29237;DHT22;16266;50.866;4.398;2023-12-20T02:38:42;5.90;99.90
29237;DHT22;16266;50.866;4.398;2023-12-20T02:41:08;6.00;99.90
29237;DHT22;16266;50.866;4.398;2023-12-20T02:43:33;6.00;99.90
29237;DHT22;16266;50.866;4.398;2023-12-20T02:45:59;6.00;99.90
29237;DHT22;16266;50.866;4.398;2023-12-20T02:48:25;6.00;99.90
29237;DHT22;16266;50.866;4.398;2023-12-20T02:50:51;6.00;99.90
29237;DHT22;16266;50.866;4.398;2023-12-20T02:53:17;6.10;99.90
29237;DHT22;16266;50.866;4.398;2023-12-20T02:55:42;6.10;99.90
29237;DHT22;16266;50.866;4.398;2023-12-20T02:58:08;6.00;99.90
29237;DHT22;16266;50.866;4.398;2023-12-20T03:00:34;6.00;99.90
29237;DHT22;16266;50.866;4.398;2023-12-20T03:03:00;6.00;99.90
29237;DHT22;16266;50.866;4.398;2023-12-20T03:05:26;6.00;99.90
29237;DHT22;16266;50.866;4.398;2023-12-20T03:07:52;6.10;99.90
29237;DHT22;16266;50.866;4.398;2023-12-20T03:10:18;6.20;99.90
29237;DHT22;16266;50.866;4.398;2023-12-20T03:12:45;6.40;99.90
29237;DHT22;16266;50.866;4.398;2023-12-20T03:15:11;6.50;99.90
29237;DHT22;16266;50.866;4.398;2023-12-20T03:17:36;6.60;99.90
29237;DHT22;16266;50.866;4.398;2023-12-20T03:20:02;6.60;99.90
29237;DHT22;16266;50.866;4.398;2023-12-20T03:22:28;6.60;99.90
29237;DHT22;16266;50.866;4.398;2023-12-20T03:24:54;6.50;99.90
29237;DHT22;16266;50.866;4.398;2023-12-20T03:27:19;6.60;99.90
29237;DHT22;16266;50.866;4.398;2023-12-20T03:29:45;6.50;99.90
29237;DHT22;16266;50.866;4.398;2023-12-20T03:32:11;6.50;99.90
29237;DHT22;16266;50.866;4.398;2023-12-20T03:34:36;6.50;99.90
29237;DHT22;16266;50.866;4.398;2023-12-20T03:37:02;6.50;99.90
29237;DHT22;16266;50.866;4.398;2023-12-20T03:39:28;6.50;99.90
29237;DHT22;16266;50.866;4.398;2023-12-20T03:41:54;6.60;99.90
29237;DHT22;16266;50.866;4.398;2023-12-20T03:44:20;6.60;99.90
29237;DHT22;16266;50.866;4.398;2023-12-20T03:46:46;6.50;99.90
29237;DHT22;16266;50.866;4.398;2023-12-20T03:49:12;6.50;99.90
29237;DHT22;16266;50.866;4.398;2023-12-20T03:51:38;6.50;99.90
29237;DHT22;16266;50.866;4.398;2023-12-20T03:54:04;6.60;99.90
29237;DHT22;16266;50.866;4.398;2023-12-20T03:56:29;6.70;99.90
29237;DHT22;16266;50.866;4.398;2023-12-20T03:58:56;6.70;99.90
29237;DHT22;16266;50.866;4.398;2023-12-20T04:01:22;6.80;99.90
29237;DHT22;16266;50.866;4.398;2023-12-20T04:03:47;6.80;99.90
29237;DHT22;16266;50.866;4.398;2023-12-20T04:06:19;6.80;99.90
29237;DHT22;16266;50.866;4.398;2023-12-20T04:08:44;6.80;99.90
29237;DHT22;16266;50.866;4.398;2023-12-20T04:11:10;6.80;99.90
29237;DHT22;16266;50.866;4.398;2023-12-20T04:13:36;6.80;99.90
29237;DHT22;16266;50.866;4.398;2023-12-20T04:16:02;6.80;99.90
29237;DHT22;16266;50.866;4.398;2023-12-20T04:18:28;6.80;99.90
29237;DHT22;16266;50.866;4.398;2023-12-20T04:20:54;6.80;99.90
29237;DHT22;16266;50.866;4.398;2023-12-20T04:23:19;6.80;99.90
29237;DHT22;16266;50.866;4.398;2023-12-20T04:25:46;6.70;99.90
29237;DHT22;16266;50.866;4.398;2023-12-20T04:28:12;6.70;99.90
29237;DHT22;16266;50.866;4.398;2023-12-20T04:30:38;6.60;99.90
29237;DHT22;16266;50.866;4.398;2023-12-20T04:33:03;6.50;99.90
29237;DHT22;16266;50.866;4.398;2023-12-20T04:35:29;6.40;99.90
29237;DHT22;16266;50.866;4.398;2023-12-20T04:37:55;6.20;99.90
29237;DHT22;16266;50.866;4.398;2023-12-20T04:40:21;6.30;99.90
29237;DHT22;16266;50.866;4.398;2023-12-20T04:42:46;6.30;99.90
29237;DHT22;16266;50.866;4.398;2023-12-20T04:45:12;6.40;99.90
29237;DHT22;16266;50.866;4.398;2023-12-20T04:47:39;6.40;99.90
29237;DHT22;16266;50.866;4.398;2023-12-20T04:50:05;6.50;99.90
29237;DHT22;16266;50.866;4.398;2023-12-20T04:52:31;6.60;99.90
29237;DHT22;16266;50.866;4.398;2023-12-20T04:54:56;6.60;99.90
29237;DHT22;16266;50.866;4.398;2023-12-20T04:57:22;6.60;99.90
29237;DHT22;16266;50.866;4.398;2023-12-20T04:59:48;6.60;99.90
29237;DHT22;16266;50.866;4.398;2023-12-20T05:02:13;6.60;99.90
29237;DHT22;16266;50.866;4.398;2023-12-20T05:04:39;6.60;99.90
29237;DHT22;16266;50.866;4.398;2023-12-20T05:07:05;6.60;99.90
29237;DHT22;16266;50.866;4.398;2023-12-20T05:09:30;6.70;99.90
29237;DHT22;16266;50.866;4.398;2023-12-20T05:11:56;6.70;99.90
29237;DHT22;16266;50.866;4.398;2023-12-20T05:14:23;6.80;99.90
29237;DHT22;16266;50.866;4.398;2023-12-20T05:16:50;6.70;99.90
29237;DHT22;16266;50.866;4.398;2023-12-20T05:19:15;6.50;99.90
29237;DHT22;16266;50.866;4.398;2023-12-20T05:21:41;6.50;99.90
29237;DHT22;16266;50.866;4.398;2023-12-20T05:24:07;6.40;99.90
29237;DHT22;16266;50.866;4.398;2023-12-20T05:26:33;6.30;99.90
29237;DHT22;16266;50.866;4.398;2023-12-20T05:28:58;6.10;99.90
29237;DHT22;16266;50.866;4.398;2023-12-20T05:31:24;6.00;99.90
29237;DHT22;16266;50.866;4.398;2023-12-20T05:33:49;5.90;99.90
29237;DHT22;16266;50.866;4.398;2023-12-20T05:36:15;6.00;99.90
29237;DHT22;16266;50.866;4.398;2023-12-20T05:38:41;6.10;99.90
29237;DHT22;16266;50.866;4.398;2023-12-20T05:41:06;6.10;99.90
29237;DHT22;16266;50.866;4.398;2023-12-20T05:43:32;6.10;99.90
29237;DHT22;16266;50.866;4.398;2023-12-20T05:45:58;6.00;99.90
29237;DHT22;16266;50.866;4.398;2023-12-20T05:48:23;6.00;99.90
29237;DHT22;16266;50.866;4.398;2023-12-20T05:50:49;6.00;99.90
29237;DHT22;16266;50.866;4.398;2023-12-20T05:53:15;5.90;99.90
29237;DHT22;16266;50.866;4.398;2023-12-20T05:55:40;5.90;99.90
29237;DHT22;16266;50.866;4.398;2023-12-20T05:58:06;5.90;99.90
29237;DHT22;16266;50.866;4.398;2023-12-20T06:00:32;6.00;99.90
29237;DHT22;16266;50.866;4.398;2023-12-20T06:02:57;6.10;99.90
29237;DHT22;16266;50.866;4.398;2023-12-20T06:05:23;6.00;99.90
29237;DHT22;16266;50.866;4.398;2023-12-20T06:07:48;6.00;99.90
29237;DHT22;16266;50.866;4.398;2023-12-20T06:10:16;6.00;99.90
29237;DHT22;16266;50.866;4.398;2023-12-20T06:12:42;6.00;99.90
29237;DHT22;16266;50.866;4.398;2023-12-20T06:15:08;6.10;99.90
29237;DHT22;16266;50.866;4.398;2023-12-20T06:17:34;6.10;99.90
29237;DHT22;16266;50.866;4.398;2023-12-20T06:20:00;6.10;99.90
29237;DHT22;16266;50.866;4.398;2023-12-20T06:22:26;6.20;99.90
29237;DHT22;16266;50.866;4.398;2023-12-20T06:24:52;6.20;99.90
29237;DHT22;16266;50.866;4.398;2023-12-20T06:27:17;6.30;99.90
29237;DHT22;16266;50.866;4.398;2023-12-20T06:29:43;6.40;99.90
29237;DHT22;16266;50.866;4.398;2023-12-20T06:32:10;6.30;99.90
29237;DHT22;16266;50.866;4.398;2023-12-20T06:34:36;6.30;99.90
29237;DHT22;16266;50.866;4.398;2023-12-20T06:37:01;6.40;99.90
29237;DHT22;16266;50.866;4.398;2023-12-20T06:39:27;6.30;99.90
29237;DHT22;16266;50.866;4.398;2023-12-20T06:41:53;6.10;99.90
29237;DHT22;16266;50.866;4.398;2023-12-20T06:44:19;6.00;99.90
29237;DHT22;16266;50.866;4.398;2023-12-20T06:46:44;6.00;99.90
29237;DHT22;16266;50.866;4.398;2023-12-20T06:49:10;6.10;99.90
29237;DHT22;16266;50.866;4.398;2023-12-20T06:51:36;6.20;99.90
29237;DHT22;16266;50.866;4.398;2023-12-20T06:54:01;6.10;99.90
29237;DHT22;16266;50.866;4.398;2023-12-20T06:56:28;6.00;99.90
29237;DHT22;16266;50.866;4.398;2023-12-20T06:58:54;5.90;99.90
29237;DHT22;16266;50.866;4.398;2023-12-20T07:01:19;5.80;99.90
29237;DHT22;16266;50.866;4.398;2023-12-20T07:03:45;5.70;99.90
29237;DHT22;16266;50.866;4.398;2023-12-20T07:06:11;5.70;99.90
29237;DHT22;16266;50.866;4.398;2023-12-20T07:08:36;5.60;99.90
29237;DHT22;16266;50.866;4.398;2023-12-20T07:11:02;5.50;99.90
29237;DHT22;16266;50.866;4.398;2023-12-20T07:13:28;5.50;99.90
29237;DHT22;16266;50.866;4.398;2023-12-20T07:15:53;5.50;99.90
29237;DHT22;16266;50.866;4.398;2023-12-20T07:18:19;5.60;99.90
29237;DHT22;16266;50.866;4.398;2023-12-20T07:20:45;5.60;99.90
29237;DHT22;16266;50.866;4.398;2023-12-20T07:23:10;5.60;99.90
29237;DHT22;16266;50.866;4.398;2023-12-20T07:25:36;5.70;99.90
29237;DHT22;16266;50.866;4.398;2023-12-20T07:28:02;5.50;99.90
29237;DHT22;16266;50.866;4.398;2023-12-20T07:30:28;5.40;99.90
29237;DHT22;16266;50.866;4.398;2023-12-20T07:32:53;5.40;99.90
29237;DHT22;16266;50.866;4.398;2023-12-20T07:35:19;5.30;99.90
29237;DHT22;16266;50.866;4.398;2023-12-20T07:37:45;5.30;99.90
29237;DHT22;16266;50.866;4.398;2023-12-20T07:40:11;5.30;99.90
29237;DHT22;16266;50.866;4.398;2023-12-20T07:42:36;5.30;99.90
29237;DHT22;16266;50.866;4.398;2023-12-20T07:45:03;5.30;99.90
29237;DHT22;16266;50.866;4.398;2023-12-20T07:47:28;5.20;99.90
29237;DHT22;16266;50.866;4.398;2023-12-20T07:49:54;5.20;99.90
29237;DHT22;16266;50.866;4.398;2023-12-20T07:52:20;5.20;99.90
29237;DHT22;16266;50.866;4.398;2023-12-20T07:54:48;5.30;99.90
29237;DHT22;16266;50.866;4.398;2023-12-20T07:57:13;5.30;99.90
29237;DHT22;16266;50.866;4.398;2023-12-20T07:59:39;5.30;99.90
29237;DHT22;16266;50.866;4.398;2023-12-20T08:02:05;5.30;99.90
29237;DHT22;16266;50.866;4.398;2023-12-20T08:04:31;5.30;99.90
29237;DHT22;16266;50.866;4.398;2023-12-20T08:06:56;5.30;99.90
29237;DHT22;16266;50.866;4.398;2023-12-20T08:09:22;5.40;99.90
29237;DHT22;16266;50.866;4.398;2023-12-20T08:11:48;5.40;99.90
29237;DHT22;16266;50.866;4.398;2023-12-20T08:14:14;5.40;99.90
29237;DHT22;16266;50.866;4.398;2023-12-20T08:16:40;5.50;99.90
29237;DHT22;16266;50.866;4.398;2023-12-20T08:19:05;5.50;99.90
29237;DHT22;16266;50.866;4.398;2023-12-20T08:21:31;5.50;99.90
29237;DHT22;16266;50.866;4.398;2023-12-20T08:23:57;5.50;99.90
29237;DHT22;16266;50.866;4.398;2023-12-20T08:26:22;5.60;99.90
29237;DHT22;16266;50.866;4.398;2023-12-20T08:28:50;5.70;99.90
29237;DHT22;16266;50.866;4.398;2023-12-20T08:31:16;5.90;99.90
29237;DHT22;16266;50.866;4.398;2023-12-20T08:33:46;6.10;99.90
29237;DHT22;16266;50.866;4.398;2023-12-20T08:36:12;6.20;99.90
29237;DHT22;16266;50.866;4.398;2023-12-20T08:38:38;6.50;99.90
29237;DHT22;16266;50.866;4.398;2023-12-20T08:41:04;6.70;99.90
29237;DHT22;16266;50.866;4.398;2023-12-20T08:43:34;7.00;99.90
29237;DHT22;16266;50.866;4.398;2023-12-20T08:46:01;7.10;99.90
29237;DHT22;16266;50.866;4.398;2023-12-20T08:48:27;7.20;99.90
29237;DHT22;16266;50.866;4.398;2023-12-20T08:50:53;7.00;99.90
29237;DHT22;16266;50.866;4.398;2023-12-20T08:53:19;6.90;99.90
29237;DHT22;16266;50.866;4.398;2023-12-20T08:55:45;7.00;99.90
29237;DHT22;16266;50.866;4.398;2023-12-20T08:58:11;7.10;99.90
29237;DHT22;16266;50.866;4.398;2023-12-20T09:00:36;7.20;99.90
29237;DHT22;16266;50.866;4.398;2023-12-20T09:03:04;7.50;99.90
29237;DHT22;16266;50.866;4.398;2023-12-20T09:05:30;7.70;99.90
29237;DHT22;16266;50.866;4.398;2023-12-20T09:07:56;7.80;99.90
29237;DHT22;16266;50.866;4.398;2023-12-20T09:10:21;8.00;99.90
29237;DHT22;16266;50.866;4.398;2023-12-20T09:12:51;8.20;99.90
29237;DHT22;16266;50.866;4.398;2023-12-20T09:15:19;8.40;99.90
29237;DHT22;16266;50.866;4.398;2023-12-20T09:17:45;8.40;99.90
29237;DHT22;16266;50.866;4.398;2023-12-20T09:20:11;8.60;99.90
29237;DHT22;16266;50.866;4.398;2023-12-20T09:22:39;8.70;99.90
29237;DHT22;16266;50.866;4.398;2023-12-20T09:25:05;8.90;99.90
29237;DHT22;16266;50.866;4.398;2023-12-20T09:27:32;8.90;99.90
29237;DHT22;16266;50.866;4.398;2023-12-20T09:29:57;9.00;99.90
29237;DHT22;16266;50.866;4.398;2023-12-20T09:32:23;9.00;99.90
29237;DHT22;16266;50.866;4.398;2023-12-20T09:34:48;9.20;99.90
29237;DHT22;16266;50.866;4.398;2023-12-20T09:37:14;9.30;99.90
29237;DHT22;16266;50.866;4.398;2023-12-20T09:39:40;9.90;99.90
29237;DHT22;16266;50.866;4.398;2023-12-20T09:42:06;10.30;99.90
29237;DHT22;16266;50.866;4.398;2023-12-20T09:44:33;10.50;99.90
29237;DHT22;16266;50.866;4.398;2023-12-20T09:47:03;10.60;99.90
29237;DHT22;16266;50.866;4.398;2023-12-20T09:49:30;10.50;99.90
29237;DHT22;16266;50.866;4.398;2023-12-20T09:51:56;10.30;99.90
29237;DHT22;16266;50.866;4.398;2023-12-20T09:54:23;10.20;99.90
29237;DHT22;16266;50.866;4.398;2023-12-20T09:56:49;10.00;99.90
29237;DHT22;16266;50.866;4.398;2023-12-20T09:59:15;9.70;99.90
29237;DHT22;16266;50.866;4.398;2023-12-20T10:01:41;9.70;99.90
29237;DHT22;16266;50.866;4.398;2023-12-20T10:04:12;9.70;99.90
29237;DHT22;16266;50.866;4.398;2023-12-20T10:06:42;9.70;99.90
29237;DHT22;16266;50.866;4.398;2023-12-20T10:09:09;9.60;99.90
29237;DHT22;16266;50.866;4.398;2023-12-20T10:11:39;9.60;99.90
29237;DHT22;16266;50.866;4.398;2023-12-20T10:14:08;9.50;99.90
29237;DHT22;16266;50.866;4.398;2023-12-20T10:16:34;9.20;99.90
29237;DHT22;16266;50.866;4.398;2023-12-20T10:19:00;9.50;99.90
29237;DHT22;16266;50.866;4.398;2023-12-20T10:21:29;10.20;99.90
29237;DHT22;16266;50.866;4.398;2023-12-20T10:23:56;10.40;99.90
29237;DHT22;16266;50.866;4.398;2023-12-20T10:26:23;10.30;99.90
29237;DHT22;16266;50.866;4.398;2023-12-20T10:28:56;10.10;99.90
29237;DHT22;16266;50.866;4.398;2023-12-20T10:31:32;9.90;99.90
29237;DHT22;16266;50.866;4.398;2023-12-20T10:33:59;9.80;99.90
29237;DHT22;16266;50.866;4.398;2023-12-20T10:36:27;9.80;99.90
29237;DHT22;16266;50.866;4.398;2023-12-20T10:38:53;9.80;99.90
29237;DHT22;16266;50.866;4.398;2023-12-20T10:41:25;9.90;99.90
29237;DHT22;16266;50.866;4.398;2023-12-20T10:43:52;9.80;99.90
29237;DHT22;16266;50.866;4.398;2023-12-20T10:46:19;9.80;99.90
29237;DHT22;16266;50.866;4.398;2023-12-20T10:48:46;9.70;99.90
29237;DHT22;16266;50.866;4.398;2023-12-20T10:51:14;9.70;99.90
29237;DHT22;16266;50.866;4.398;2023-12-20T10:53:43;9.70;99.90
29237;DHT22;16266;50.866;4.398;2023-12-20T10:56:12;9.80;99.90
29237;DHT22;16266;50.866;4.398;2023-12-20T10:58:42;9.80;99.90
29237;DHT22;16266;50.866;4.398;2023-12-20T11:01:09;9.90;99.90
29237;DHT22;16266;50.866;4.398;2023-12-20T11:03:36;9.90;99.90
29237;DHT22;16266;50.866;4.398;2023-12-20T11:09:17;10.00;99.90
29237;DHT22;16266;50.866;4.398;2023-12-20T11:14:23;9.70;99.90
29237;DHT22;16266;50.866;4.398;2023-12-20T11:16:50;9.60;99.90
29237;DHT22;16266;50.866;4.398;2023-12-20T11:19:30;9.60;99.90
29237;DHT22;16266;50.866;4.398;2023-12-20T11:21:57;9.50;99.90
29237;DHT22;16266;50.866;4.398;2023-12-20T11:24:22;9.40;99.90
29237;DHT22;16266;50.866;4.398;2023-12-20T11:26:49;9.40;99.90
29237;DHT22;16266;50.866;4.398;2023-12-20T11:29:36;9.30;99.90
29237;DHT22;16266;50.866;4.398;2023-12-20T11:32:03;9.00;99.90
29237;DHT22;16266;50.866;4.398;2023-12-20T11:34:33;9.10;99.90
29237;DHT22;16266;50.866;4.398;2023-12-20T11:37:02;9.10;99.90
29237;DHT22;16266;50.866;4.398;2023-12-20T11:39:28;9.10;99.90
29237;DHT22;16266;50.866;4.398;2023-12-20T11:41:57;9.10;99.90
29237;DHT22;16266;50.866;4.398;2023-12-20T11:44:25;9.10;99.90
29237;DHT22;16266;50.866;4.398;2023-12-20T11:46:50;9.10;99.90
29237;DHT22;16266;50.866;4.398;2023-12-20T11:49:16;9.20;99.90
29237;DHT22;16266;50.866;4.398;2023-12-20T11:51:42;9.20;99.90
29237;DHT22;16266;50.866;4.398;2023-12-20T11:54:09;9.20;99.90
29237;DHT22;16266;50.866;4.398;2023-12-20T11:56:36;9.10;99.90
29237;DHT22;16266;50.866;4.398;2023-12-20T11:59:02;9.10;99.90
29237;DHT22;16266;50.866;4.398;2023-12-20T12:01:28;9.10;99.90
29237;DHT22;16266;50.866;4.398;2023-12-20T12:04:06;9.10;99.90
29237;DHT22;16266;50.866;4.398;2023-12-20T12:06:32;9.10;99.90
29237;DHT22;16266;50.866;4.398;2023-12-20T12:08:59;9.10;99.90
29237;DHT22;16266;50.866;4.398;2023-12-20T12:11:25;9.10;99.90
29237;DHT22;16266;50.866;4.398;2023-12-20T12:13:51;9.10;99.90
29237;DHT22;16266;50.866;4.398;2023-12-20T12:16:20;9.10;99.90
29237;DHT22;16266;50.866;4.398;2023-12-20T12:18:46;9.20;99.90
29237;DHT22;16266;50.866;4.398;2023-12-20T12:21:20;9.20;99.90
29237;DHT22;16266;50.866;4.398;2023-12-20T12:23:49;9.30;99.90
29237;DHT22;16266;50.866;4.398;2023-12-20T12:26:14;9.30;99.90
29237;DHT22;16266;50.866;4.398;2023-12-20T12:28:41;9.30;99.90
29237;DHT22;16266;50.866;4.398;2023-12-20T12:31:07;9.30;99.90
29237;DHT22;16266;50.866;4.398;2023-12-20T12:33:33;9.30;99.90
29237;DHT22;16266;50.866;4.398;2023-12-20T12:36:01;9.20;99.90
29237;DHT22;16266;50.866;4.398;2023-12-20T12:38:27;9.20;99.90
29237;DHT22;16266;50.866;4.398;2023-12-20T12:40:55;9.10;99.90
29237;DHT22;16266;50.866;4.398;2023-12-20T12:43:20;9.10;99.90
29237;DHT22;16266;50.866;4.398;2023-12-20T12:45:48;9.10;99.90
29237;DHT22;16266;50.866;4.398;2023-12-20T12:48:14;9.00;99.90
29237;DHT22;16266;50.866;4.398;2023-12-20T12:50:40;9.10;99.90
29237;DHT22;16266;50.866;4.398;2023-12-20T12:53:06;9.10;99.90
29237;DHT22;16266;50.866;4.398;2023-12-20T12:55:32;9.10;99.90
29237;DHT22;16266;50.866;4.398;2023-12-20T12:57:58;9.20;99.90
29237;DHT22;16266;50.866;4.398;2023-12-20T13:00:23;9.20;99.90
29237;DHT22;16266;50.866;4.398;2023-12-20T13:02:50;9.20;99.90
29237;DHT22;16266;50.866;4.398;2023-12-20T13:05:16;9.30;99.90
29237;DHT22;16266;50.866;4.398;2023-12-20T13:07:43;9.30;99.90
29237;DHT22;16266;50.866;4.398;2023-12-20T13:10:10;9.30;99.90
29237;DHT22;16266;50.866;4.398;2023-12-20T13:12:36;9.30;99.90
29237;DHT22;16266;50.866;4.398;2023-12-20T13:15:02;9.20;99.90
29237;DHT22;16266;50.866;4.398;2023-12-20T13:17:29;9.30;99.90
29237;DHT22;16266;50.866;4.398;2023-12-20T13:19:55;9.30;99.90
29237;DHT22;16266;50.866;4.398;2023-12-20T13:22:21;9.30;99.90
29237;DHT22;16266;50.866;4.398;2023-12-20T13:24:47;9.30;99.90
29237;DHT22;16266;50.866;4.398;2023-12-20T13:27:13;9.40;99.90
29237;DHT22;16266;50.866;4.398;2023-12-20T13:29:39;9.50;99.90
29237;DHT22;16266;50.866;4.398;2023-12-20T13:32:05;9.60;99.90
29237;DHT22;16266;50.866;4.398;2023-12-20T13:34:31;9.70;99.90
29237;DHT22;16266;50.866;4.398;2023-12-20T13:36:56;9.70;99.90
29237;DHT22;16266;50.866;4.398;2023-12-20T13:39:22;9.70;99.90
29237;DHT22;16266;50.866;4.398;2023-12-20T13:41:48;9.70;99.90
29237;DHT22;16266;50.866;4.398;2023-12-20T13:44:13;9.70;99.90
29237;DHT22;16266;50.866;4.398;2023-12-20T13:46:41;9.60;99.90
29237;DHT22;16266;50.866;4.398;2023-12-20T13:49:07;9.50;99.90
29237;DHT22;16266;50.866;4.398;2023-12-20T13:51:32;9.50;99.90
29237;DHT22;16266;50.866;4.398;2023-12-20T13:53:58;9.50;99.90
29237;DHT22;16266;50.866;4.398;2023-12-20T13:56:25;9.60;99.90
29237;DHT22;16266;50.866;4.398;2023-12-20T13:58:50;9.60;99.90
29237;DHT22;16266;50.866;4.398;2023-12-20T14:01:17;9.60;99.90
29237;DHT22;16266;50.866;4.398;2023-12-20T14:03:42;9.70;99.90
29237;DHT22;16266;50.866;4.398;2023-12-20T14:06:08;9.60;99.90
29237;DHT22;16266;50.866;4.398;2023-12-20T14:08:34;9.60;99.90
29237;DHT22;16266;50.866;4.398;2023-12-20T14:10:59;9.70;99.90
29237;DHT22;16266;50.866;4.398;2023-12-20T14:13:26;9.70;99.90
29237;DHT22;16266;50.866;4.398;2023-12-20T14:15:52;9.70;99.90
29237;DHT22;16266;50.866;4.398;2023-12-20T14:18:19;9.70;99.90
29237;DHT22;16266;50.866;4.398;2023-12-20T14:20:45;9.70;99.90
29237;DHT22;16266;50.866;4.398;2023-12-20T14:23:12;9.70;99.90
29237;DHT22;16266;50.866;4.398;2023-12-20T14:25:41;9.80;99.90
29237;DHT22;16266;50.866;4.398;2023-12-20T14:28:07;9.90;99.90
29237;DHT22;16266;50.866;4.398;2023-12-20T14:30:33;9.90;99.90
29237;DHT22;16266;50.866;4.398;2023-12-20T14:33:00;9.90;99.90
29237;DHT22;16266;50.866;4.398;2023-12-20T14:35:26;10.00;99.90
29237;DHT22;16266;50.866;4.398;2023-12-20T14:37:53;10.00;99.90
29237;DHT22;16266;50.866;4.398;2023-12-20T14:40:19;9.90;99.90
29237;DHT22;16266;50.866;4.398;2023-12-20T14:42:45;9.90;99.90
29237;DHT22;16266;50.866;4.398;2023-12-20T14:45:11;9.90;99.90
29237;DHT22;16266;50.866;4.398;2023-12-20T14:47:38;9.90;99.90
29237;DHT22;16266;50.866;4.398;2023-12-20T14:50:05;9.90;99.90
29237;DHT22;16266;50.866;4.398;2023-12-20T14:52:33;9.90;99.90
29237;DHT22;16266;50.866;4.398;2023-12-20T14:55:02;9.90;99.90
29237;DHT22;16266;50.866;4.398;2023-12-20T14:57:28;9.90;99.90
29237;DHT22;16266;50.866;4.398;2023-12-20T14:59:55;9.90;99.90
29237;DHT22;16266;50.866;4.398;2023-12-20T15:02:21;9.90;99.90
29237;DHT22;16266;50.866;4.398;2023-12-20T15:04:46;10.00;99.90
29237;DHT22;16266;50.866;4.398;2023-12-20T15:07:12;10.00;99.90
29237;DHT22;16266;50.866;4.398;2023-12-20T15:09:38;9.90;99.90
29237;DHT22;16266;50.866;4.398;2023-12-20T15:12:04;10.00;99.90
29237;DHT22;16266;50.866;4.398;2023-12-20T15:14:30;10.00;99.90
29237;DHT22;16266;50.866;4.398;2023-12-20T15:16:55;10.00;99.90
29237;DHT22;16266;50.866;4.398;2023-12-20T15:19:22;10.10;99.90
29237;DHT22;16266;50.866;4.398;2023-12-20T15:21:48;10.10;99.90
29237;DHT22;16266;50.866;4.398;2023-12-20T15:24:14;10.10;99.90
29237;DHT22;16266;50.866;4.398;2023-12-20T15:26:46;10.00;99.90
29237;DHT22;16266;50.866;4.398;2023-12-20T15:29:12;10.00;99.90
29237;DHT22;16266;50.866;4.398;2023-12-20T15:31:46;10.00;99.90
29237;DHT22;16266;50.866;4.398;2023-12-20T15:34:13;9.90;99.90
29237;DHT22;16266;50.866;4.398;2023-12-20T15:36:39;10.00;99.90
29237;DHT22;16266;50.866;4.398;2023-12-20T15:39:05;10.10;99.90
29237;DHT22;16266;50.866;4.398;2023-12-20T15:41:33;9.90;99.90
29237;DHT22;16266;50.866;4.398;2023-12-20T15:43:59;10.00;99.90